Hurlburt Field
KHRT : now visible

Airfield :











YOU CAN JOIN US ON...

 
LOGIN :

Register | Disclaimer

   EN    FR    IT 

 









Legend :    VFR   Marginal VFR   IFR   Intensive IFR   Very Intensive IFR
Visi :
Ceiling :
>= 8 km
>= 3000ft
5 to 8 km
1000 to 3000 ft
1500m to 5 km
500 to 1000 ft
800 to 1500m
200 to 500 ft
< 800m
< 200 ft
Symbols :   Thunderstorms  Fog  Heavy snow  Heavy precipitations  Wind > 20 kt






- Airport Elevation : 38 ft


KHRT - Hurlburt Field

CURRENT METAR :
  • 280456Z 14005KT 10SM BKN008 26/24 A2992 RMK AO2A SLP133 T02560240 $

EXPIRED METARs :
  • 280446Z 14005KT 10SM BKN006 26/24 A2992 RMK AO2A SLP133 $
  • 280356Z 13005KT 10SM BKN009 26/24 A2992 RMK AO2A SLP133 T02570239 $
  • 280331Z 15005KT 10SM BKN009 26/24 A2993 RMK AO2A SLP137 $
  • 280256Z 14007KT 10SM CLR 26/24 A2993 RMK AO2A SLP137 T02550235 52015 $

TAF TAF KHRT
Valid from the 28 at 02:00 until the 29 at 08:00 UTC


280200Z 2802/2908 VRB06KT 9999 FEW030 SCT100 QNH2990INS
BECMG 2814/2815 22008KT 9999 FEW030 QNH2997INS
BECMG 2905/2906 VRB06KT 9999 BKN015 OVC030 QNH3000INS TX31/2820Z TN23/2809Z
KZJX FIR / North America



MET'MAP, your aeronautical weather chart ! - Copyright ORBIFLY December 2007 - Disclaimer

ORBIFLY MET'MAP TEAM :

Programming & Development : Alexandra Zaïnal
Concept & original design : Baudouin d'Aumeries
Assistance for programming : Marc-Olivier Méhu
Technical & hardware support : Manuel Goepfert

Contact : metmap@orbifly.com




SOURCES & CREDITS :

   NOAA       Earth
Advisory